馬祖北竿航空站 - ATIS

METAR RCMT 040100Z 05014KT 8000 SCT010 BKN016 BKN030 14/08 Q1023 NOSIG RMK A3022(N)=

站台狀態:Offline
最後更新:2020-04-04 09:00:02